| time (UTC) | temp F | wind direction | speed MPH | gust MPH | rain 1hr in | rain 24hr in | rain mn in | humidity % | barometer mb |
| 20260508003005 | 47 | 187 | 16.0 | 23.0 | 0.00 | 0.00 | 0.00 | 83 | 1008.1 |
| 20260508001505 | 46 | 186 | 16.0 | 24.0 | 0.00 | 0.00 | 0.00 | 83 | 1008.0 |
| 20260508000005 | 46 | 184 | 16.0 | 21.0 | 0.00 | 0.00 | 0.00 | 82 | 1008.0 |
| 20260507234505 | 47 | 184 | 16.0 | 25.0 | 0.00 | 0.00 | 0.00 | 82 | 1008.1 |
| 20260507233005 | 47 | 182 | 15.0 | 21.0 | 0.00 | 0.00 | 0.00 | 82 | 1008.1 |
| 20260507231504 | 47 | 184 | 16.0 | 22.0 | 0.00 | 0.00 | 0.00 | 82 | 1008.4 |
| 20260507230005 | 46 | 179 | 14.0 | 20.0 | 0.00 | 0.00 | 0.00 | 85 | 1008.4 |
| 20260507224505 | 46 | 181 | 15.0 | 20.0 | 0.00 | 0.00 | 0.00 | 86 | 1008.3 |
| 20260507223005 | 47 | 183 | 13.0 | 19.0 | 0.00 | 0.00 | 0.00 | 85 | 1008.3 |
| 20260507221504 | 48 | 184 | 15.0 | 22.0 | 0.00 | 0.00 | 0.00 | 86 | 1008.3 |
| 20260507220004 | 47 | 183 | 17.0 | 22.0 | 0.00 | 0.00 | 0.00 | 86 | 1008.2 |
| 20260507214505 | 47 | 181 | 18.0 | 24.0 | 0.00 | 0.00 | 0.00 | 86 | 1008.2 |
| 20260507213005 | 47 | 182 | 17.0 | 23.0 | 0.00 | 0.00 | 0.00 | 86 | 1008.3 |
| 20260507211505 | 47 | 181 | 18.0 | 25.0 | 0.00 | 0.00 | 0.00 | 86 | 1008.5 |
| 20260507210005 | 47 | 176 | 19.0 | 23.0 | 0.00 | 0.00 | 0.00 | 86 | 1008.5 |
| 20260507204505 | 48 | 175 | 18.0 | 23.0 | 0.00 | 0.00 | 0.00 | 85 | 1008.3 |
| 20260507203005 | 48 | 174 | 18.0 | 24.0 | 0.00 | 0.00 | 0.00 | 85 | 1008.3 |
| 20260507201504 | 47 | 174 | 15.0 | 20.0 | 0.00 | 0.00 | 0.00 | 86 | 1008.3 |
| 20260507200026 | 48 | 172 | 16.0 | 21.0 | 0.00 | 0.00 | 0.00 | 85 | 1008.2 |
| 20260507194525 | 48 | 166 | 16.0 | 21.0 | 0.00 | 0.00 | 0.00 | 86 | 1008.1 |
| 20260507193004 | 49 | 164 | 14.0 | 19.0 | 0.00 | 0.00 | 0.00 | 85 | 1008.0 |
| 20260507191505 | 49 | 170 | 14.0 | 19.0 | 0.00 | 0.00 | 0.00 | 85 | 1008.0 |
| 20260507190005 | 50 | 170 | 17.0 | 24.0 | 0.00 | 0.00 | 0.00 | 84 | 1008.2 |
| 20260507184525 | 50 | 172 | 17.0 | 23.0 | 0.00 | 0.00 | 0.00 | 82 | 1008.0 |
| 20260507183025 | 50 | 169 | 20.0 | 29.0 | 0.00 | 0.00 | 0.00 | 82 | 1007.9 |
| 20260507181504 | 52 | 171 | 18.0 | 27.0 | 0.00 | 0.00 | 0.00 | 81 | 1007.8 |
| 20260507180025 | 52 | 166 | 18.0 | 26.0 | 0.00 | 0.00 | 0.00 | 81 | 1007.8 |
| 20260507174525 | 51 | 165 | 18.0 | 25.0 | 0.00 | 0.00 | 0.00 | 81 | 1007.7 |
| 20260507173005 | 51 | 167 | 18.0 | 27.0 | 0.00 | 0.00 | 0.00 | 81 | 1007.8 |
| 20260507171504 | 51 | 163 | 18.0 | 24.0 | 0.00 | 0.00 | 0.00 | 82 | 1007.9 |
| 20260507170005 | 51 | 162 | 16.0 | 25.0 | 0.00 | 0.00 | 0.00 | 82 | 1008.1 |
| 20260507164504 | 51 | 161 | 18.0 | 25.0 | 0.00 | 0.00 | 0.00 | 82 | 1008.1 |
| 20260507163004 | 51 | 157 | 18.0 | 26.0 | 0.00 | 0.00 | 0.00 | 83 | 1008.2 |
| 20260507161525 | 51 | 152 | 19.0 | 29.0 | 0.00 | 0.00 | 0.00 | 82 | 1008.4 |
| 20260507160005 | 51 | 157 | 21.0 | 30.0 | 0.00 | 0.00 | 0.00 | 81 | 1008.4 |
| 20260507154525 | 51 | 170 | 20.0 | 31.0 | 0.00 | 0.00 | 0.00 | 79 | 1008.5 |
| 20260507153004 | 52 | 170 | 23.0 | 31.0 | 0.00 | 0.00 | 0.00 | 77 | 1008.4 |
| 20260507151504 | 52 | 163 | 23.0 | 31.0 | 0.00 | 0.00 | 0.00 | 76 | 1008.4 |
| 20260507150005 | 53 | 160 | 23.0 | 31.0 | 0.00 | 0.00 | 0.00 | 75 | 1008.6 |
| 20260507144504 | 53 | 165 | 22.0 | 33.0 | 0.00 | 0.00 | 0.00 | 76 | 1008.6 |
| 20260507143004 | 52 | 165 | 20.0 | 34.0 | 0.00 | 0.00 | 0.00 | 77 | 1008.7 |
| 20260507141504 | 53 | 162 | 22.0 | 33.0 | 0.00 | 0.00 | 0.00 | 77 | 1008.6 |
| 20260507140025 | 53 | 162 | 22.0 | 33.0 | 0.00 | 0.00 | 0.00 | 75 | 1008.9 |
| 20260507134525 | 52 | 167 | 21.0 | 30.0 | 0.00 | 0.00 | 0.00 | 76 | 1009.0 |
| 20260507133004 | 53 | 165 | 20.0 | 31.0 | 0.00 | 0.00 | 0.00 | 74 | 1009.2 |
| 20260507131504 | 52 | 172 | 17.0 | 25.0 | 0.00 | 0.00 | 0.00 | 75 | 1009.3 |
| 20260507130004 | 52 | 182 | 15.0 | 22.0 | 0.00 | 0.00 | 0.00 | 73 | 1009.3 |
| 20260507124525 | 52 | 175 | 17.0 | 24.0 | 0.00 | 0.00 | 0.00 | 70 | 1009.3 |
| 20260507123004 | 53 | 172 | 19.0 | 26.0 | 0.00 | 0.00 | 0.00 | 71 | 1009.3 |
| 20260507121504 | 54 | 170 | 17.0 | 27.0 | 0.00 | 0.00 | 0.00 | 71 | 1009.3 |
| 20260507120005 | 56 | 164 | 21.0 | 30.0 | 0.00 | 0.00 | 0.00 | 71 | 1009.1 |
| 20260507114504 | 55 | 158 | 19.0 | 29.0 | 0.00 | 0.00 | 0.00 | 69 | 1009.2 |
| 20260507113005 | 53 | 158 | 15.0 | 21.0 | 0.00 | 0.00 | 0.00 | 74 | 1009.2 |
| 20260507111506 | 52 | 173 | 17.0 | 24.0 | 0.00 | 0.00 | 0.00 | 72 | 1009.3 |
| 20260507110005 | 53 | 184 | 16.0 | 25.0 | 0.00 | 0.00 | 0.00 | 68 | 1009.3 |
| 20260507104504 | 56 | 180 | 16.0 | 23.0 | 0.00 | 0.00 | 0.00 | 67 | 1009.3 |
| 20260507103004 | 56 | 168 | 20.0 | 29.0 | 0.00 | 0.00 | 0.00 | 67 | 1009.3 |
| 20260507101504 | 52 | 178 | 18.0 | 25.0 | 0.00 | 0.00 | 0.00 | 70 | 1009.1 |
| 20260507100004 | 55 | 165 | 17.0 | 30.0 | 0.00 | 0.00 | 0.00 | 69 | 1009.2 |
| 20260507094504 | 54 | 166 | 18.0 | 27.0 | 0.00 | 0.00 | 0.00 | 72 | 1009.3 |
| 20260507093004 | 53 | 172 | 19.0 | 30.0 | 0.00 | 0.00 | 0.00 | 74 | 1009.4 |
| 20260507091525 | 53 | 161 | 18.0 | 29.0 | 0.00 | 0.00 | 0.00 | 75 | 1009.4 |
| 20260507090005 | 50 | 159 | 19.0 | 29.0 | 0.00 | 0.00 | 0.00 | 78 | 1009.5 |
| 20260507084504 | 49 | 160 | 20.0 | 27.0 | 0.00 | 0.00 | 0.00 | 79 | 1009.5 |
| 20260507083005 | 47 | 161 | 17.0 | 24.0 | 0.00 | 0.00 | 0.00 | 82 | 1009.7 |
| 20260507081504 | 46 | 161 | 16.0 | 21.0 | 0.00 | 0.00 | 0.00 | 84 | 1009.6 |
| 20260507080025 | 45 | 165 | 15.0 | 25.0 | 0.00 | 0.00 | 0.00 | 84 | 1009.7 |
| 20260507074504 | 44 | 171 | 17.0 | 24.0 | 0.00 | 0.00 | 0.00 | 83 | 1009.7 |
| 20260507073025 | 44 | 171 | 16.0 | 23.0 | 0.00 | 0.00 | 0.00 | 83 | 1009.8 |
| 20260507071504 | 43 | 162 | 16.0 | 22.0 | 0.00 | 0.00 | 0.00 | 83 | 1009.8 |
| 20260507070009 | 43 | 157 | 14.0 | 21.0 | 0.00 | 0.00 | 0.00 | 84 | 1009.8 |
| 20260507064504 | 43 | 162 | 15.0 | 21.0 | 0.00 | 0.00 | 0.00 | 84 | 1009.7 |
| 20260507063004 | 42 | 168 | 15.0 | 22.0 | 0.00 | 0.00 | 0.00 | 84 | 1009.8 |
| 20260507061504 | 42 | 166 | 18.0 | 23.0 | 0.00 | 0.00 | 0.00 | 84 | 1009.7 |
| 20260507060025 | 42 | 168 | 17.0 | 22.0 | 0.00 | 0.00 | 0.00 | 84 | 1009.7 |
| 20260507054504 | 42 | 168 | 19.0 | 25.0 | 0.00 | 0.00 | 0.00 | 83 | 1009.7 |
| 20260507053005 | 42 | 168 | 19.0 | 25.0 | 0.00 | 0.00 | 0.00 | 84 | 1009.8 |
| 20260507051504 | 42 | 166 | 19.0 | 25.0 | 0.00 | 0.00 | 0.00 | 84 | 1009.9 |
| 20260507050025 | 41 | 166 | 18.0 | 24.0 | 0.00 | 0.00 | 0.00 | 84 | 1009.9 |
| 20260507044504 | 41 | 169 | 19.0 | 24.0 | 0.00 | 0.00 | 0.00 | 83 | 1010.0 |
| 20260507043004 | 41 | 170 | 19.0 | 22.0 | 0.00 | 0.00 | 0.00 | 83 | 1010.0 |
| 20260507041525 | 41 | 170 | 21.0 | 26.0 | 0.00 | 0.00 | 0.00 | 83 | 1010.0 |
| 20260507040004 | 42 | 170 | 22.0 | 29.0 | 0.00 | 0.00 | 0.00 | 82 | 1009.9 |
| 20260507034504 | 42 | 172 | 20.0 | 27.0 | 0.00 | 0.00 | 0.00 | 81 | 1010.0 |
| 20260507033004 | 42 | 175 | 21.0 | 29.0 | 0.00 | 0.00 | 0.00 | 79 | 1010.1 |
| 20260507031525 | 43 | 173 | 22.0 | 30.0 | 0.00 | 0.00 | 0.00 | 78 | 1010.1 |
| 20260507030025 | 42 | 168 | 18.0 | 25.0 | 0.00 | 0.00 | 0.00 | 79 | 1010.1 |
| 20260507024504 | 42 | 176 | 18.0 | 24.0 | 0.00 | 0.00 | 0.00 | 79 | 1010.3 |
| 20260507023004 | 42 | 177 | 16.0 | 23.0 | 0.00 | 0.00 | 0.00 | 81 | 1010.4 |
| 20260507021504 | 42 | 175 | 17.0 | 23.0 | 0.00 | 0.00 | 0.00 | 81 | 1010.3 |
| 20260507020004 | 42 | 173 | 18.0 | 25.0 | 0.00 | 0.00 | 0.00 | 81 | 1010.5 |
| 20260507014504 | 42 | 172 | 16.0 | 24.0 | 0.00 | 0.00 | 0.00 | 81 | 1010.6 |
| 20260507013004 | 42 | 169 | 21.0 | 27.0 | 0.00 | 0.00 | 0.00 | 80 | 1010.6 |
| 20260507011504 | 42 | 168 | 24.0 | 29.0 | 0.00 | 0.00 | 0.00 | 80 | 1010.5 |
| 20260507010025 | 42 | 168 | 20.0 | 25.0 | 0.00 | 0.00 | 0.00 | 79 | 1010.6 |
| 20260507004504 | 42 | 170 | 19.0 | 26.0 | 0.00 | 0.00 | 0.00 | 78 | 1010.9 |